Strona główna
METAR-TAF:

METAR-TAF

Lotnisko :

Provincetown Municipal Airport

Provincetown, Massachusetts, Stany Zjednoczone

Szerokość geograficzna: 42-04N, Długość geograficzna: 070-13W, wysokość: 2 m

Aktualna obserwacja pogody

Raport powstał 57 minut temu, godzina 02:56 UTC
Wiatr 25 kt od północny wschód w porywach dochodzący do 33 kt
Temperatura 6°C
Wilgotność 93%
Ciśnienie 1009 hPa
Widzialność: 4.8 km
Zachmurzenie całkowite na wysokości 500 ft
zamglenie

METAR: KPVC 040256Z AUTO 04025G33KT 3SM BR OVC005 06/05 A2981 RMK AO2 PK WND 04037/0242 SLP095 6//// T00560050 50013 PNO $

czas: 23:53 (03:53 UTC)


TAF: brakujący

Obserwacja i prognoza pogody dla ponad 4000 lotnisk (raport METAR i TAF).

Dostępne stacje oznaczono żółtymi i czerwonymi punktami na mapie.

Najedź kursorem aby zobaczyć nazwę stacji.

Kliknij aby zobaczyć obserwacje i prognozy pogody.

Aby zmienić mapę: kliknij na zielony przycisk z czarnym krzyżykiem, aby powiększyć; na zielony przycisk z myślnikiem, aby pomniejszyć; na zielone strzałki, aby przejść do map sąsiednich.


METAR-TAF: